createdAt,value
2019-03-29T00:00:58.258Z,7.28
2019-03-29T00:03:30.152Z,7.72
2019-03-29T00:06:00.313Z,6.90
2019-03-29T00:08:30.696Z,7.15
2019-03-29T00:11:00.973Z,6.95
2019-03-29T00:13:31.348Z,7.62
2019-03-29T00:16:02.115Z,7.87
2019-03-29T00:18:33.093Z,8.10
2019-03-29T00:21:03.637Z,7.80
2019-03-29T00:23:33.915Z,8.40
2019-03-29T00:26:04.468Z,7.60
2019-03-29T00:28:34.730Z,8.13
2019-03-29T00:31:05.084Z,7.78
2019-03-29T00:33:35.860Z,7.78
2019-03-29T00:36:06.027Z,8.53
2019-03-29T00:38:36.833Z,8.30
2019-03-29T00:41:06.982Z,7.87
2019-03-29T00:43:37.163Z,8.83
2019-03-29T00:46:07.432Z,8.70
2019-03-29T00:48:37.708Z,8.53
2019-03-29T00:51:07.969Z,8.40
2019-03-29T00:53:38.152Z,8.15
2019-03-29T00:56:08.408Z,8.48
2019-03-29T00:58:38.793Z,7.83
2019-03-29T01:01:09.385Z,7.55
2019-03-29T01:03:39.560Z,7.78
2019-03-29T01:06:09.903Z,9.00
2019-03-29T01:08:40.071Z,8.28
2019-03-29T01:11:10.227Z,8.50
2019-03-29T01:13:40.408Z,8.60
2019-03-29T01:16:10.572Z,8.50
2019-03-29T01:18:40.769Z,9.28
2019-03-29T01:21:10.925Z,8.23
2019-03-29T01:23:41.201Z,8.95
2019-03-29T01:26:11.621Z,9.20
2019-03-29T01:28:41.874Z,8.90
2019-03-29T01:31:12.146Z,9.43
2019-03-29T01:33:42.528Z,8.63
2019-03-29T01:36:12.793Z,8.73
2019-03-29T01:38:44.064Z,9.78
2019-03-29T01:41:14.472Z,9.40
2019-03-29T01:43:44.968Z,9.68
2019-03-29T01:46:15.227Z,8.63
2019-03-29T01:48:45.708Z,9.10
2019-03-29T01:51:15.969Z,8.63
2019-03-29T01:53:46.339Z,8.38
2019-03-29T01:56:16.495Z,8.50
2019-03-29T01:58:46.871Z,8.63
2019-03-29T02:01:17.150Z,9.13
2019-03-29T02:03:47.336Z,8.20
2019-03-29T02:06:17.808Z,8.83
2019-03-29T02:08:48.104Z,8.63
2019-03-29T02:11:18.461Z,8.18
2019-03-29T02:13:48.736Z,8.48
2019-03-29T02:16:19.000Z,8.58
2019-03-29T02:18:49.302Z,8.73
2019-03-29T02:21:19.461Z,8.23
2019-03-29T02:23:49.836Z,7.75
2019-03-29T02:26:20.122Z,8.38
2019-03-29T02:28:50.517Z,8.55
2019-03-29T02:31:25.222Z,8.33
2019-03-29T02:33:52.663Z,8.78
2019-03-29T02:36:24.014Z,9.35
2019-03-29T02:38:56.281Z,8.83
2019-03-29T02:41:26.724Z,9.05
2019-03-29T02:43:56.928Z,8.23
2019-03-29T02:46:28.117Z,8.70
2019-03-29T02:48:58.585Z,8.80
2019-03-29T02:51:28.861Z,9.08
2019-03-29T02:53:59.173Z,9.85
2019-03-29T02:56:29.337Z,8.68
2019-03-29T02:58:59.977Z,8.85
2019-03-29T03:01:30.144Z,8.90
2019-03-29T03:04:00.336Z,9.85
2019-03-29T03:06:30.541Z,9.40
2019-03-29T03:09:13.133Z,8.85
2019-03-29T03:11:32.703Z,9.50
2019-03-29T03:14:02.982Z,8.88
2019-03-29T03:16:33.386Z,10.03
2019-03-29T03:19:03.736Z,9.90
2019-03-29T03:21:34.029Z,9.73
2019-03-29T03:24:04.575Z,9.50
2019-03-29T03:26:34.777Z,9.98
2019-03-29T03:29:04.966Z,10.58
2019-03-29T03:31:35.473Z,10.23
2019-03-29T03:34:06.196Z,9.80
2019-03-29T03:36:36.469Z,10.55
2019-03-29T03:39:08.396Z,11.15
2019-03-29T03:41:38.812Z,10.23
2019-03-29T03:44:09.097Z,11.43
2019-03-29T03:46:39.406Z,11.70
2019-03-29T03:49:09.595Z,12.60
2019-03-29T03:51:40.065Z,11.80
2019-03-29T03:54:11.352Z,12.37
2019-03-29T03:56:42.498Z,13.40
2019-03-29T03:59:13.437Z,13.08
2019-03-29T04:01:43.642Z,13.85
2019-03-29T04:04:14.411Z,14.70
2019-03-29T04:06:46.863Z,14.28
2019-03-29T04:09:17.131Z,14.80
2019-03-29T04:11:47.343Z,13.60
2019-03-29T04:14:17.738Z,13.83
2019-03-29T04:16:48.445Z,12.78
2019-03-29T04:19:18.727Z,14.90
2019-03-29T04:21:48.925Z,15.60
2019-03-29T04:24:19.286Z,14.93
2019-03-29T04:26:51.098Z,13.95
2019-03-29T04:29:22.102Z,14.85
2019-03-29T04:31:52.277Z,14.47
2019-03-29T04:34:22.654Z,15.83
2019-03-29T04:36:52.952Z,15.15
2019-03-29T04:39:23.123Z,17.20
2019-03-29T04:41:53.409Z,15.78
2019-03-29T04:44:23.692Z,14.73
2019-03-29T04:46:53.888Z,14.75
2019-03-29T04:49:24.085Z,14.25
2019-03-29T04:51:54.276Z,14.20
2019-03-29T04:54:25.160Z,15.35
2019-03-29T04:56:55.360Z,15.55
2019-03-29T04:59:25.536Z,16.17
2019-03-29T05:01:55.738Z,14.95
2019-03-29T05:04:26.104Z,16.27
2019-03-29T05:06:56.300Z,15.90
2019-03-29T05:09:26.468Z,15.53
2019-03-29T05:11:56.769Z,15.95
2019-03-29T05:14:27.051Z,15.98
2019-03-29T05:16:57.248Z,16.23
2019-03-29T05:19:27.536Z,16.32
2019-03-29T05:21:57.797Z,15.63
2019-03-29T05:24:27.976Z,15.30
2019-03-29T05:26:58.276Z,15.80
2019-03-29T05:29:28.572Z,14.07
2019-03-29T05:31:58.933Z,15.90
2019-03-29T05:34:29.066Z,15.70
2019-03-29T05:36:59.387Z,15.20
2019-03-29T05:39:29.660Z,16.87
2019-03-29T05:41:59.995Z,16.27
2019-03-29T05:44:30.277Z,15.80
2019-03-29T05:47:00.477Z,16.40
2019-03-29T05:49:30.886Z,17.05
2019-03-29T05:52:01.181Z,17.48
2019-03-29T05:54:31.352Z,17.37
2019-03-29T05:57:01.665Z,17.52
2019-03-29T05:59:31.854Z,17.05
2019-03-29T06:02:02.046Z,15.53
2019-03-29T06:04:32.328Z,18.17
2019-03-29T06:07:02.624Z,18.00
2019-03-29T06:09:34.982Z,17.77
2019-03-29T06:12:05.095Z,17.77
2019-03-29T06:14:36.081Z,17.75
2019-03-29T06:17:06.270Z,16.27
2019-03-29T06:19:36.557Z,16.90
2019-03-29T06:22:06.951Z,17.62
2019-03-29T06:24:37.351Z,18.37
2019-03-29T06:27:07.609Z,18.35
2019-03-29T06:29:37.789Z,18.00
2019-03-29T06:32:08.088Z,18.65
2019-03-29T06:34:38.278Z,17.98
2019-03-29T06:37:08.840Z,16.87
2019-03-29T06:39:39.970Z,17.65
2019-03-29T06:42:10.241Z,17.02
2019-03-29T06:44:44.301Z,16.95
2019-03-29T06:47:13.790Z,17.32
2019-03-29T06:49:43.942Z,17.85
2019-03-29T06:52:14.141Z,16.52
2019-03-29T06:54:44.341Z,17.92
2019-03-29T06:57:14.744Z,16.37
2019-03-29T06:59:44.924Z,16.75
2019-03-29T07:02:15.241Z,17.30
2019-03-29T07:04:45.528Z,16.77
2019-03-29T07:07:15.942Z,15.53
2019-03-29T07:09:47.928Z,17.23
2019-03-29T07:12:18.128Z,15.78
2019-03-29T07:14:48.308Z,14.58
2019-03-29T07:17:18.501Z,16.05
2019-03-29T07:19:48.976Z,16.27
2019-03-29T07:22:19.181Z,15.85
2019-03-29T07:24:49.376Z,13.90
2019-03-29T07:27:19.686Z,15.05
2019-03-29T07:29:49.948Z,14.45
2019-03-29T07:32:20.223Z,14.60
2019-03-29T07:34:50.640Z,14.65
2019-03-29T07:37:21.740Z,13.85
2019-03-29T07:39:53.899Z,13.90
2019-03-29T07:42:23.965Z,13.38
2019-03-29T07:44:54.171Z,12.95
2019-03-29T07:47:24.484Z,12.82
2019-03-29T07:49:54.785Z,10.15
2019-03-29T07:52:25.101Z,12.70
2019-03-29T07:54:55.303Z,10.45
2019-03-29T07:57:25.719Z,10.72
2019-03-29T07:59:56.013Z,11.45
2019-03-29T08:02:26.532Z,11.50
2019-03-29T08:04:56.846Z,10.18
2019-03-29T08:07:28.874Z,9.80
2019-03-29T08:09:58.968Z,11.30
2019-03-29T08:12:30.763Z,9.95
2019-03-29T08:15:02.710Z,10.55
2019-03-29T08:17:32.928Z,10.28
2019-03-29T08:20:36.533Z,9.68
2019-03-29T08:22:35.592Z,9.95
2019-03-29T08:25:06.166Z,9.80
2019-03-29T08:27:36.315Z,8.43
2019-03-29T08:30:06.975Z,9.48
2019-03-29T08:32:37.537Z,8.83
2019-03-29T08:35:07.867Z,9.00
2019-03-29T08:37:38.058Z,8.38
2019-03-29T08:40:09.798Z,8.45
2019-03-29T08:42:40.100Z,8.90
2019-03-29T08:45:10.446Z,8.75
2019-03-29T08:47:40.919Z,8.23
2019-03-29T08:50:11.422Z,8.80
2019-03-29T08:52:41.624Z,8.75
2019-03-29T08:55:12.179Z,8.73
2019-03-29T08:57:42.383Z,7.83
2019-03-29T09:00:15.799Z,7.85
2019-03-29T09:02:45.090Z,8.30
2019-03-29T09:05:16.032Z,8.50
2019-03-29T09:07:46.751Z,8.03
2019-03-29T09:10:24.890Z,7.92
2019-03-29T09:12:55.281Z,7.30
2019-03-29T09:15:25.412Z,7.50
2019-03-29T09:17:55.736Z,6.35
2019-03-29T09:20:25.919Z,6.25
2019-03-29T09:22:56.224Z,7.83
2019-03-29T09:25:26.495Z,6.70
2019-03-29T09:27:57.543Z,7.30
2019-03-29T09:30:27.936Z,7.40
2019-03-29T09:32:58.124Z,7.40
2019-03-29T09:35:28.492Z,7.55
2019-03-29T09:37:58.946Z,6.90
2019-03-29T09:40:29.371Z,6.42
2019-03-29T09:43:07.369Z,6.70
2019-03-29T09:45:31.556Z,5.70
2019-03-29T09:48:01.735Z,5.12
2019-03-29T09:50:31.986Z,6.00
2019-03-29T09:53:02.509Z,5.17
2019-03-29T09:55:32.652Z,6.37
2019-03-29T09:58:03.045Z,6.35
2019-03-29T10:00:33.200Z,6.40
2019-03-29T10:03:03.652Z,6.40
2019-03-29T10:05:33.816Z,6.12
2019-03-29T10:08:05.501Z,6.10
2019-03-29T10:10:35.683Z,6.58
2019-03-29T10:13:06.070Z,5.15
2019-03-29T10:15:36.401Z,5.37
2019-03-29T10:18:06.696Z,6.50
2019-03-29T10:20:36.912Z,5.15
2019-03-29T10:23:07.362Z,5.03
2019-03-29T10:25:37.636Z,4.30
2019-03-29T10:28:07.936Z,5.58
2019-03-29T10:30:40.748Z,5.87
2019-03-29T10:33:12.064Z,5.92
2019-03-29T10:35:51.441Z,5.37
2019-03-29T10:38:14.122Z,5.28
2019-03-29T10:40:44.377Z,6.55
2019-03-29T10:43:14.567Z,5.70
2019-03-29T10:45:44.942Z,3.90
2019-03-29T10:48:15.225Z,4.65
2019-03-29T10:50:45.587Z,5.00
2019-03-29T10:53:15.879Z,5.58
2019-03-29T10:55:46.112Z,6.45
2019-03-29T10:58:16.498Z,6.37
2019-03-29T11:00:47.481Z,6.15
2019-03-29T11:03:17.648Z,5.67
2019-03-29T11:05:48.108Z,6.40
2019-03-29T11:08:18.447Z,5.85
2019-03-29T11:10:48.915Z,6.45
2019-03-29T11:13:19.242Z,6.75
2019-03-29T11:15:49.423Z,6.00
2019-03-29T11:18:19.728Z,6.75
2019-03-29T11:20:50.114Z,7.05
2019-03-29T11:23:20.267Z,7.10
2019-03-29T11:25:50.653Z,7.15
2019-03-29T11:28:20.914Z,6.72
2019-03-29T11:30:51.199Z,7.10
2019-03-29T11:33:21.356Z,7.20
2019-03-29T11:35:51.655Z,7.47
2019-03-29T11:38:22.092Z,7.78
2019-03-29T11:40:52.281Z,7.10
2019-03-29T11:43:26.982Z,7.70
2019-03-29T11:45:55.166Z,7.40
2019-03-29T11:48:25.519Z,7.62
2019-03-29T11:50:55.903Z,8.33
2019-03-29T11:53:26.215Z,7.17
2019-03-29T11:55:56.509Z,7.87
2019-03-29T11:58:26.853Z,7.33
2019-03-29T12:00:57.272Z,7.42
2019-03-29T12:03:27.450Z,7.17
2019-03-29T12:05:57.731Z,6.10
2019-03-29T12:08:27.992Z,7.05
2019-03-29T12:10:58.172Z,6.95
2019-03-29T12:13:40.379Z,7.45
2019-03-29T12:16:00.629Z,7.28
2019-03-29T12:18:31.160Z,7.75
2019-03-29T12:21:01.448Z,7.45
2019-03-29T12:23:31.650Z,7.10
2019-03-29T12:26:02.039Z,7.97
2019-03-29T12:28:32.199Z,7.33
2019-03-29T12:31:02.529Z,7.72
2019-03-29T12:33:35.737Z,7.05
2019-03-29T12:36:06.148Z,7.03
2019-03-29T12:38:36.308Z,7.15
2019-03-29T12:41:06.511Z,7.47
2019-03-29T12:43:36.758Z,7.80
2019-03-29T12:46:07.141Z,7.50
2019-03-29T12:48:37.471Z,7.42
2019-03-29T12:51:07.727Z,7.05
2019-03-29T12:53:37.894Z,7.95
2019-03-29T12:56:09.651Z,7.37
2019-03-29T12:58:40.555Z,7.90
2019-03-29T13:01:10.981Z,7.35
2019-03-29T13:03:41.373Z,7.78
2019-03-29T13:06:11.623Z,7.92
2019-03-29T13:08:41.902Z,8.48
2019-03-29T13:11:12.149Z,7.62
2019-03-29T13:13:42.331Z,8.48
2019-03-29T13:16:12.699Z,8.20
2019-03-29T13:18:42.861Z,7.45
2019-03-29T13:21:13.109Z,7.95
2019-03-29T13:23:43.349Z,6.85
2019-03-29T13:26:14.609Z,7.70
2019-03-29T13:28:45.068Z,7.97
2019-03-29T13:31:15.457Z,7.62
2019-03-29T13:33:45.918Z,7.90
2019-03-29T13:36:16.196Z,8.18
2019-03-29T13:38:46.565Z,8.10
2019-03-29T13:41:16.744Z,8.63
2019-03-29T13:43:46.944Z,8.48
2019-03-29T13:46:17.388Z,8.68
2019-03-29T13:48:47.751Z,8.03
2019-03-29T13:51:17.932Z,8.13
2019-03-29T13:53:48.192Z,9.00
2019-03-29T13:56:18.572Z,7.75
2019-03-29T13:58:48.848Z,8.50
2019-03-29T14:01:19.027Z,7.75
2019-03-29T14:03:49.183Z,7.97
2019-03-29T14:06:19.667Z,7.80
2019-03-29T14:08:49.928Z,8.80
2019-03-29T14:11:20.108Z,7.80
2019-03-29T14:13:50.363Z,8.10
2019-03-29T14:16:20.752Z,8.05
2019-03-29T14:18:50.920Z,7.40
2019-03-29T14:21:21.278Z,8.43
2019-03-29T14:23:51.443Z,7.95
2019-03-29T14:26:21.722Z,8.23
2019-03-29T14:28:51.880Z,7.60
2019-03-29T14:31:24.814Z,7.90
2019-03-29T14:33:55.029Z,7.05
2019-03-29T14:36:25.509Z,7.47
2019-03-29T14:38:55.776Z,7.75
2019-03-29T14:41:26.055Z,7.08
2019-03-29T14:43:56.211Z,7.17
2019-03-29T14:46:27.503Z,7.65
2019-03-29T14:48:57.784Z,6.87
2019-03-29T14:51:27.974Z,6.95
2019-03-29T14:53:58.141Z,7.50
2019-03-29T14:56:28.689Z,7.45
2019-03-29T14:58:58.946Z,7.30
2019-03-29T15:01:29.127Z,7.03
2019-03-29T15:03:59.384Z,7.08
2019-03-29T15:06:29.563Z,7.22
2019-03-29T15:08:59.861Z,7.22
2019-03-29T15:11:30.257Z,7.10
2019-03-29T15:14:00.516Z,7.35
2019-03-29T15:16:30.900Z,7.42
2019-03-29T15:19:01.060Z,7.37
2019-03-29T15:21:31.716Z,7.47
2019-03-29T15:24:01.976Z,7.45
2019-03-29T15:26:32.164Z,7.72
2019-03-29T15:29:02.452Z,7.97
2019-03-29T15:31:32.832Z,8.10
2019-03-29T15:34:03.000Z,7.17
2019-03-29T15:36:33.376Z,7.33
2019-03-29T15:39:03.620Z,7.35
2019-03-29T15:41:33.891Z,8.65
2019-03-29T15:44:04.048Z,8.40
2019-03-29T15:46:34.428Z,8.08
2019-03-29T15:49:04.731Z,8.75
2019-03-29T15:51:34.984Z,7.80
2019-03-29T15:54:05.253Z,8.28
2019-03-29T15:56:35.552Z,8.05
2019-03-29T15:59:05.884Z,7.78
2019-03-29T16:01:38.825Z,8.40
2019-03-29T16:04:08.292Z,8.55
2019-03-29T16:06:38.708Z,8.25
2019-03-29T16:09:08.934Z,8.85
2019-03-29T16:11:39.136Z,8.80
2019-03-29T16:14:09.309Z,8.10
2019-03-29T16:16:40.118Z,8.08
2019-03-29T16:19:10.384Z,8.38
2019-03-29T16:21:40.700Z,8.55
2019-03-29T16:24:11.069Z,8.65
2019-03-29T16:26:41.259Z,9.15
2019-03-29T16:29:11.612Z,8.18
2019-03-29T16:31:41.760Z,8.83
2019-03-29T16:34:11.944Z,8.63
2019-03-29T16:36:42.179Z,7.92
2019-03-29T16:39:12.464Z,8.55
2019-03-29T16:41:43.247Z,9.05
2019-03-29T16:44:13.606Z,9.05
2019-03-29T16:46:43.759Z,8.88
2019-03-29T16:49:14.061Z,9.40
2019-03-29T16:51:44.331Z,8.40
2019-03-29T16:54:14.628Z,9.15
2019-03-29T16:56:44.800Z,8.80
2019-03-29T16:59:15.084Z,8.68
2019-03-29T17:01:45.369Z,9.03
2019-03-29T17:04:15.550Z,8.73
2019-03-29T17:06:45.705Z,8.63
2019-03-29T17:09:15.909Z,9.10
2019-03-29T17:11:46.169Z,7.92
2019-03-29T17:14:16.365Z,9.45
2019-03-29T17:16:46.737Z,9.08
2019-03-29T17:19:17.121Z,8.38
2019-03-29T17:21:47.297Z,9.08
2019-03-29T17:24:17.682Z,8.38
2019-03-29T17:26:47.960Z,9.93
2019-03-29T17:29:18.362Z,9.28
2019-03-29T17:31:48.641Z,9.60
2019-03-29T17:34:19.041Z,8.85
2019-03-29T17:36:49.359Z,9.10
2019-03-29T17:39:22.127Z,8.60
2019-03-29T17:41:51.568Z,9.20
2019-03-29T17:44:21.971Z,9.05
2019-03-29T17:46:52.320Z,9.05
2019-03-29T17:49:22.513Z,8.53
2019-03-29T17:51:52.670Z,8.88
2019-03-29T17:54:22.861Z,8.60
2019-03-29T17:56:53.296Z,8.65
2019-03-29T17:59:23.479Z,8.75
2019-03-29T18:01:53.656Z,8.48
2019-03-29T18:04:24.321Z,8.48
2019-03-29T18:06:55.203Z,8.23
2019-03-29T18:09:25.395Z,7.92
2019-03-29T18:11:55.669Z,8.03
2019-03-29T18:14:26.259Z,9.18
2019-03-29T18:16:56.771Z,9.20
2019-03-29T18:19:26.944Z,8.73
2019-03-29T18:21:57.308Z,7.22
2019-03-29T18:24:27.595Z,8.73
2019-03-29T18:26:58.052Z,8.05
2019-03-29T18:29:28.247Z,9.20
2019-03-29T18:31:58.796Z,9.53
2019-03-29T18:34:29.536Z,9.53
2019-03-29T18:37:01.768Z,10.10
2019-03-29T18:39:33.022Z,10.30
2019-03-29T18:42:03.524Z,10.32
2019-03-29T18:44:34.112Z,10.15
2019-03-29T18:47:04.306Z,11.60
2019-03-29T18:49:34.716Z,11.28
2019-03-29T18:52:04.920Z,10.55
2019-03-29T18:54:36.650Z,9.23
2019-03-29T18:57:06.939Z,9.93
2019-03-29T18:59:37.221Z,10.08
2019-03-29T19:02:07.396Z,9.08
2019-03-29T19:04:56.940Z,9.50
2019-03-29T19:07:30.437Z,10.50
2019-03-29T19:10:00.937Z,10.03
2019-03-29T19:12:31.132Z,10.03
2019-03-29T19:15:01.345Z,9.80
2019-03-29T19:17:31.540Z,10.08
2019-03-29T19:20:01.856Z,10.03
2019-03-29T19:22:32.284Z,10.93
2019-03-29T19:25:02.629Z,11.00
2019-03-29T19:27:34.159Z,10.95
2019-03-29T19:30:08.012Z,11.35
2019-03-29T19:32:38.317Z,11.68
2019-03-29T19:35:09.514Z,11.30
2019-03-29T19:37:39.883Z,11.35
2019-03-29T19:40:10.569Z,11.90
2019-03-29T19:42:40.875Z,11.22
2019-03-29T19:45:12.333Z,11.25
2019-03-29T19:47:42.629Z,10.10
2019-03-29T19:50:15.073Z,10.53
2019-03-29T19:52:45.320Z,11.90
2019-03-29T19:55:15.915Z,13.58
2019-03-29T19:57:46.620Z,12.93
2019-03-29T20:00:17.563Z,12.93
2019-03-29T20:02:48.254Z,13.22
2019-03-29T20:05:26.355Z,13.28
2019-03-29T20:07:57.095Z,12.07
2019-03-29T20:10:27.369Z,12.03
2019-03-29T20:12:58.637Z,12.75
2019-03-29T20:15:28.840Z,13.70
2019-03-29T20:17:59.167Z,12.58
2019-03-29T20:20:29.593Z,12.63
2019-03-29T20:23:00.126Z,12.15
2019-03-29T20:25:30.472Z,12.65
2019-03-29T20:28:00.650Z,12.95
2019-03-29T20:30:30.961Z,13.10
2019-03-29T20:33:01.206Z,12.78
2019-03-29T20:35:31.522Z,11.97
2019-03-29T20:38:01.907Z,13.13
2019-03-29T20:40:32.903Z,12.78
2019-03-29T20:43:03.127Z,11.90
2019-03-29T20:45:33.603Z,11.68
2019-03-29T20:48:04.529Z,11.85
2019-03-29T20:50:34.737Z,11.88
2019-03-29T20:53:04.937Z,13.28
2019-03-29T20:55:35.266Z,12.37
2019-03-29T20:58:05.463Z,12.93
2019-03-29T21:00:36.564Z,13.10
2019-03-29T21:03:06.827Z,13.50
2019-03-29T21:05:37.195Z,12.60
2019-03-29T21:08:07.588Z,11.88
2019-03-29T21:10:38.320Z,12.30
2019-03-29T21:13:08.665Z,13.35
2019-03-29T21:15:38.884Z,13.43
2019-03-29T21:18:09.073Z,12.75
2019-03-29T21:20:39.589Z,11.75
2019-03-29T21:23:09.983Z,12.18
2019-03-29T21:25:40.276Z,12.47
2019-03-29T21:28:10.460Z,11.93
2019-03-29T21:30:40.667Z,12.55
2019-03-29T21:33:11.289Z,12.15
2019-03-29T21:35:42.014Z,11.97
2019-03-29T21:38:13.788Z,11.93
2019-03-29T21:40:43.998Z,11.65
2019-03-29T21:43:14.252Z,11.83
2019-03-29T21:45:44.740Z,12.95
2019-03-29T21:48:28.143Z,12.37
2019-03-29T21:50:46.752Z,11.90
2019-03-29T21:53:16.942Z,13.88
2019-03-29T21:55:47.443Z,13.25
2019-03-29T21:58:17.656Z,14.73
2019-03-29T22:00:47.828Z,15.18
2019-03-29T22:03:18.209Z,13.43
2019-03-29T22:05:48.401Z,13.25
2019-03-29T22:08:18.719Z,13.38
2019-03-29T22:10:49.001Z,13.62
2019-03-29T22:13:19.204Z,13.72
2019-03-29T22:15:49.396Z,12.80
2019-03-29T22:18:19.908Z,12.33
2019-03-29T22:20:50.401Z,13.08
2019-03-29T22:23:20.808Z,13.35
2019-03-29T22:25:51.533Z,12.58
2019-03-29T22:28:21.844Z,13.98
2019-03-29T22:30:52.231Z,13.68
2019-03-29T22:33:23.313Z,13.58
2019-03-29T22:35:53.808Z,13.80
2019-03-29T22:38:24.118Z,14.18
2019-03-29T22:40:54.600Z,14.73
2019-03-29T22:43:24.911Z,15.50
2019-03-29T22:45:55.120Z,14.53
2019-03-29T22:48:25.523Z,14.03
2019-03-29T22:50:55.899Z,16.42
2019-03-29T22:53:26.139Z,14.47
2019-03-29T22:55:56.316Z,14.53
2019-03-29T22:58:28.405Z,15.58
2019-03-29T23:00:59.309Z,17.07
2019-03-29T23:03:29.668Z,16.27
2019-03-29T23:06:01.400Z,16.60
2019-03-29T23:08:33.104Z,15.75
2019-03-29T23:11:03.820Z,17.20
2019-03-29T23:13:34.024Z,18.45
2019-03-29T23:16:04.415Z,14.25
2019-03-29T23:18:34.827Z,13.08
2019-03-29T23:21:05.216Z,14.05
2019-03-29T23:23:35.923Z,14.23
2019-03-29T23:26:06.315Z,14.68
2019-03-29T23:28:38.125Z,13.55
2019-03-29T23:31:08.311Z,14.18
2019-03-29T23:33:38.519Z,14.53
2019-03-29T23:36:08.684Z,14.55
2019-03-29T23:38:39.192Z,14.45
2019-03-29T23:41:09.480Z,13.95
2019-03-29T23:43:39.892Z,14.15
2019-03-29T23:46:10.080Z,14.05
2019-03-29T23:48:40.483Z,14.65
2019-03-29T23:51:10.892Z,13.38
2019-03-29T23:53:41.299Z,13.40
2019-03-29T23:56:11.589Z,14.13
2019-03-29T23:58:41.904Z,13.85
